Time;durP1;ratioP1;P1;durP2;ratioP2;P2;SDS_P1;SDS_P2;PMS_P1;PMS_P2;Temp;Humidity;BMP_temperature;BMP_pressure;BME280_temperature;BME280_humidity;BME280_pressure;Samples;Min_cycle;Max_cycle;Signal;HPM_P1;HPM_P2
2021/04/27 00:01:15;;;;;;;1.23;1.13;;;;;;;4.77;54.21;100496.75;5117641;28;20209;-83
2021/04/27 00:03:41;;;;;;;1.60;1.37;;;;;;;4.74;54.14;100501.06;5117668;28;20224;-81
2021/04/27 00:06:07;;;;;;;1.97;1.50;;;;;;;4.61;54.54;100496.69;5116376;28;20211;-82
2021/04/27 00:08:33;;;;;;;2.43;1.40;;;;;;;4.35;56.40;100503.38;5117976;28;20627;-82
2021/04/27 00:10:59;;;;;;;1.70;1.17;;;;;;;4.32;56.10;100498.22;5118490;27;20209;-82
2021/04/27 00:13:26;;;;;;;1.20;1.10;;;;;;;4.17;55.91;100492.91;5115823;28;20209;-82
2021/04/27 00:15:52;;;;;;;1.30;1.20;;;;;;;4.05;57.17;100498.84;5117870;27;20667;-82
2021/04/27 00:18:18;;;;;;;1.37;1.27;;;;;;;3.88;57.83;100490.94;5118097;27;20201;-82
2021/04/27 00:20:45;;;;;;;1.40;1.30;;;;;;;3.93;56.84;100496.16;5117475;28;20208;-82
2021/04/27 00:23:11;;;;;;;1.80;1.50;;;;;;;3.82;57.63;100490.88;5116758;27;20954;-83
2021/04/27 00:25:36;;;;;;;2.23;1.17;;;;;;;3.75;56.73;100486.53;5118475;28;20207;-82
2021/04/27 00:28:03;;;;;;;1.30;1.20;;;;;;;3.80;55.45;100484.84;5116506;28;20227;-82
2021/04/27 00:30:29;;;;;;;1.30;1.20;;;;;;;3.73;56.21;100481.34;5116823;27;20211;-82
2021/04/27 00:32:56;;;;;;;1.67;1.30;;;;;;;3.66;56.66;100478.69;5117296;28;20213;-83
2021/04/27 00:35:24;;;;;;;2.37;1.30;;;;;;;3.71;56.29;100480.47;5116768;27;20604;-82
2021/04/27 00:37:50;;;;;;;2.63;1.50;;;;;;;3.76;55.25;100478.78;5116973;28;20223;-82
2021/04/27 00:40:17;;;;;;;1.47;1.07;;;;;;;3.77;55.72;100472.78;5118533;27;20215;-81
2021/04/27 00:42:46;;;;;;;1.83;1.67;;;;;;;3.71;55.77;100471.88;5117160;28;20667;-82
2021/04/27 00:45:16;;;;;;;1.83;1.37;;;;;;;3.57;56.37;100475.16;5117618;27;20295;-82
2021/04/27 00:47:42;;;;;;;1.57;1.40;;;;;;;3.66;55.06;100474.38;5117117;27;20228;-81
2021/04/27 00:50:10;;;;;;;1.53;1.40;;;;;;;3.78;53.58;100469.31;5117001;27;20273;-83
2021/04/27 00:52:37;;;;;;;3.17;1.40;;;;;;;3.82;53.66;100480.56;5115830;27;20710;-82
2021/04/27 00:55:04;;;;;;;2.13;1.53;;;;;;;3.86;53.84;100473.72;5117135;27;20211;-82
2021/04/27 00:57:30;;;;;;;2.13;1.70;;;;;;;3.88;53.69;100475.44;5116386;27;20223;-82
2021/04/27 00:59:57;;;;;;;1.60;1.40;;;;;;;3.84;54.08;100471.09;5117889;28;20205;-81
2021/04/27 01:02:23;;;;;;;2.40;1.63;;;;;;;3.70;54.72;100467.53;5117324;28;20322;-82
2021/04/27 01:04:49;;;;;;;1.30;1.20;;;;;;;3.65;56.08;100462.34;5115401;28;20284;-81
2021/04/27 01:07:19;;;;;;;1.60;1.17;;;;;;;3.44;56.70;100465.56;5114418;27;20641;-82
2021/04/27 01:09:53;;;;;;;1.70;1.47;;;;;;;3.34;56.68;100464.59;5115214;27;20308;-82
2021/04/27 01:12:23;;;;;;;2.60;1.20;;;;;;;3.41;55.41;100462.97;5115204;27;20602;-82
2021/04/27 01:15:02;;;;;;;1.57;1.30;;;;;;;3.37;56.43;100463.78;5114480;28;20203;-82
2021/04/27 01:17:28;;;;;;;1.90;1.40;;;;;;;3.34;56.96;100464.59;5115398;27;20215;-82
2021/04/27 01:20:02;;;;;;;1.90;1.13;;;;;;;3.43;56.09;100469.00;5114693;28;20208;-82
2021/04/27 01:22:35;;;;;;;4.27;1.33;;;;;;;3.28;56.81;100451.63;5114341;28;20688;-82
2021/04/27 01:25:05;;;;;;;2.30;1.17;;;;;;;3.21;56.41;100467.03;5114167;28;20693;-82
2021/04/27 01:27:33;;;;;;;1.80;1.70;;;;;;;3.25;55.71;100463.63;5114629;28;20223;-81
2021/04/27 01:30:00;;;;;;;2.10;1.30;;;;;;;3.35;54.80;100457.72;5114547;28;20295;-82
2021/04/27 01:32:27;;;;;;;3.10;1.47;;;;;;;3.35;55.12;100460.28;5114547;28;20851;-81
2021/04/27 01:34:54;;;;;;;1.30;1.20;;;;;;;3.33;54.80;100447.41;5114864;28;20199;-81
2021/04/27 01:37:20;;;;;;;2.80;1.20;;;;;;;3.33;54.23;100446.50;5114766;28;20284;-82
2021/04/27 01:39:47;;;;;;;1.20;1.10;;;;;;;3.34;54.52;100445.69;5114100;28;20215;-81
2021/04/27 01:42:14;;;;;;;2.47;1.43;;;;;;;3.34;53.73;100453.41;5114609;27;20678;-82
2021/04/27 01:44:42;;;;;;;3.47;1.60;;;;;;;3.35;53.84;100450.88;5112809;28;20235;-82
2021/04/27 01:47:09;;;;;;;1.50;1.40;;;;;;;3.34;53.91;100449.13;5114055;27;20267;-82
2021/04/27 01:49:36;;;;;;;1.03;1.03;;;;;;;3.32;54.39;100448.22;5114442;28;20625;-82
2021/04/27 01:52:02;;;;;;;1.73;1.50;;;;;;;3.33;53.68;100438.78;5114758;27;20611;-82
2021/04/27 01:54:30;;;;;;;1.33;1.10;;;;;;;3.32;53.89;100442.22;5114412;28;20196;-82
2021/04/27 01:56:56;;;;;;;2.20;1.40;;;;;;;3.32;53.30;100439.63;5113301;28;20228;-82
2021/04/27 01:59:22;;;;;;;1.30;1.10;;;;;;;3.35;53.52;100442.22;5115022;28;20199;-81
2021/04/27 02:01:49;;;;;;;3.27;1.37;;;;;;;3.32;53.37;100452.53;5114424;28;20692;-82
2021/04/27 02:04:20;;;;;;;1.87;1.50;;;;;;;3.33;53.20;100449.09;5114591;28;20899;-81
2021/04/27 02:06:47;;;;;;;1.40;1.30;;;;;;;3.30;52.87;100442.19;5114492;27;20243;-82
2021/04/27 02:09:14;;;;;;;2.43;1.80;;;;;;;3.28;53.08;100448.19;5113759;28;20213;-82
2021/04/27 02:11:43;;;;;;;1.70;1.40;;;;;;;3.30;52.81;100439.63;5115588;27;20204;-81
2021/04/27 02:14:11;;;;;;;1.40;1.27;;;;;;;3.31;52.94;100440.47;5114244;28;20339;-82
2021/04/27 02:16:43;;;;;;;2.20;1.50;;;;;;;3.36;53.48;100447.41;5114628;28;20233;-82
2021/04/27 02:19:10;;;;;;;1.93;1.20;;;;;;;3.27;53.60;100449.91;5114848;28;20204;-82
2021/04/27 02:21:37;;;;;;;2.03;1.57;;;;;;;3.27;53.11;100444.75;5113743;28;20212;-82
2021/04/27 02:24:04;;;;;;;2.10;1.33;;;;;;;3.32;52.64;100447.38;5114352;28;20237;-82
2021/04/27 02:26:33;;;;;;;1.60;1.40;;;;;;;3.31;52.44;100446.53;5114180;28;20231;-82
2021/04/27 02:29:01;;;;;;;1.83;1.73;;;;;;;3.28;52.72;100440.47;5114148;28;20276;-82
2021/04/27 02:31:29;;;;;;;4.67;1.50;;;;;;;3.29;53.08;100434.44;5114556;28;20681;-81
2021/04/27 02:33:55;;;;;;;1.60;1.50;;;;;;;3.24;53.00;100433.53;5114279;28;20207;-81
2021/04/27 02:36:22;;;;;;;1.60;1.43;;;;;;;3.12;54.38;100437.69;5114591;27;20287;-83
2021/04/27 02:38:48;;;;;;;1.80;1.23;;;;;;;3.17;54.20;100436.06;5114949;28;20207;-81
2021/04/27 02:41:14;;;;;;;4.13;1.47;;;;;;;3.14;53.79;100428.25;5115826;28;20204;-82
2021/04/27 02:43:40;;;;;;;1.57;1.27;;;;;;;3.14;53.73;100427.41;5114130;28;20534;-83
2021/04/27 02:46:07;;;;;;;2.57;1.80;;;;;;;3.16;53.95;100420.56;5114993;28;20205;-82
2021/04/27 02:48:33;;;;;;;2.63;1.70;;;;;;;3.07;54.67;100423.91;5113595;28;20207;-82
2021/04/27 02:51:00;;;;;;;3.10;1.70;;;;;;;3.11;54.21;100412.78;5114977;28;20685;-82
2021/04/27 02:53:27;;;;;;;1.33;1.23;;;;;;;3.05;54.51;100416.97;5114443;28;20249;-82
2021/04/27 02:55:54;;;;;;;1.93;1.43;;;;;;;2.99;55.06;100422.94;5115626;28;20211;-82
2021/04/27 02:58:21;;;;;;;1.97;1.30;;;;;;;2.91;56.68;100420.25;5115432;28;20654;-82
2021/04/27 03:00:48;;;;;;;1.87;1.60;;;;;;;2.89;55.03;100416.78;5114544;28;20200;-82
2021/04/27 03:03:14;;;;;;;2.23;1.30;;;;;;;2.85;56.63;100419.31;5114683;28;20208;-82
2021/04/27 03:05:40;;;;;;;2.13;1.60;;;;;;;2.69;57.41;100421.72;5114864;28;20306;-81
2021/04/27 03:08:06;;;;;;;1.97;1.43;;;;;;;2.65;57.23;100419.09;5114444;28;20231;-81
2021/04/27 03:10:34;;;;;;;2.60;1.70;;;;;;;2.68;58.20;100412.25;5113847;28;20692;-83
2021/04/27 03:13:00;;;;;;;1.53;1.30;;;;;;;2.56;57.70;100417.25;5113205;28;20207;-81
2021/04/27 03:15:27;;;;;;;1.50;1.40;;;;;;;2.50;58.39;100415.47;5113381;28;20200;-82
2021/04/27 03:17:53;;;;;;;2.57;1.60;;;;;;;2.47;58.88;100417.97;5115998;27;20221;-81
2021/04/27 03:20:19;;;;;;;1.90;1.50;;;;;;;2.33;58.41;100417.78;5118321;27;20249;-82
2021/04/27 03:22:45;;;;;;;1.57;1.40;;;;;;;2.21;59.62;100421.91;5117505;27;20211;-82
2021/04/27 03:25:13;;;;;;;1.77;1.60;;;;;;;2.19;60.20;100416.75;5117869;28;20231;-82
2021/04/27 03:27:40;;;;;;;2.33;1.47;;;;;;;2.17;59.68;100416.72;5116793;27;20276;-81
2021/04/27 03:30:08;;;;;;;1.80;1.70;;;;;;;2.08;59.97;100415.69;5116805;28;20207;-82
2021/04/27 03:32:34;;;;;;;1.40;1.30;;;;;;;2.10;59.10;100419.16;5117492;27;20204;-81
2021/04/27 03:35:00;;;;;;;1.70;1.53;;;;;;;2.08;59.10;100415.69;5116928;28;20201;-82
2021/04/27 03:37:26;;;;;;;2.20;1.73;;;;;;;1.95;60.01;100410.38;5117432;28;20717;-82
2021/04/27 03:39:52;;;;;;;1.67;1.57;;;;;;;1.91;60.61;100405.16;5118376;28;20209;-82
2021/04/27 03:42:18;;;;;;;2.33;1.83;;;;;;;1.96;60.95;100409.53;5118306;27;20299;-81
2021/04/27 03:44:45;;;;;;;2.23;1.80;;;;;;;1.99;61.09;100407.00;5117376;28;20258;-83
2021/04/27 03:47:11;;;;;;;3.10;1.80;;;;;;;1.93;60.94;100404.34;5117758;27;20227;-81
2021/04/27 03:49:37;;;;;;;2.90;1.80;;;;;;;1.94;61.06;100406.09;5117603;27;20204;-81
2021/04/27 03:52:03;;;;;;;2.20;1.77;;;;;;;1.94;61.05;100410.34;5117488;28;20235;-82
2021/04/27 03:54:29;;;;;;;2.00;1.70;;;;;;;1.82;61.15;100416.16;5117235;28;20204;-83
2021/04/27 03:56:55;;;;;;;2.63;1.70;;;;;;;1.72;61.82;100419.44;5117813;27;20231;-81
2021/04/27 03:59:21;;;;;;;1.83;1.50;;;;;;;1.69;61.69;100415.09;5116419;28;20270;-81
2021/04/27 04:01:48;;;;;;;2.40;1.60;;;;;;;1.74;62.17;100423.75;5117354;27;20210;-81
2021/04/27 04:04:14;;;;;;;2.03;1.93;;;;;;;1.79;61.60;100413.56;5116563;28;20284;-81
2021/04/27 04:06:40;;;;;;;1.77;1.60;;;;;;;1.62;62.40;100413.25;5117356;27;20247;-81
2021/04/27 04:09:09;;;;;;;2.70;1.47;;;;;;;1.58;62.83;100422.63;5117288;28;20219;-82
2021/04/27 04:11:36;;;;;;;4.30;2.10;;;;;;;1.51;62.54;100417.38;5117771;27;20207;-81
2021/04/27 04:14:03;;;;;;;2.27;2.07;;;;;;;1.64;62.05;100414.16;5117033;28;20234;-83
2021/04/27 04:16:28;;;;;;;1.83;1.67;;;;;;;1.72;61.58;100419.44;5117802;27;20228;-81
2021/04/27 04:18:55;;;;;;;1.83;1.67;;;;;;;1.81;61.01;100418.72;5117205;28;20276;-82
2021/04/27 04:21:23;;;;;;;1.93;1.80;;;;;;;1.82;62.15;100411.00;5117570;27;20670;-82
2021/04/27 04:23:49;;;;;;;4.73;1.93;;;;;;;1.81;62.19;100411.88;5117760;28;20212;-82
2021/04/27 04:26:15;;;;;;;2.13;1.70;;;;;;;1.86;61.82;100412.78;5116646;28;20223;-82
2021/04/27 04:28:41;;;;;;;2.13;1.50;;;;;;;1.89;61.11;100410.28;5116070;28;20207;-83
2021/04/27 04:31:07;;;;;;;2.20;1.97;;;;;;;1.91;61.39;100406.03;5117932;27;20232;-82
2021/04/27 04:33:34;;;;;;;2.00;1.70;;;;;;;1.97;60.77;100412.97;5117390;28;20216;-82
2021/04/27 04:36:01;;;;;;;2.10;1.87;;;;;;;1.98;60.83;100410.44;5117455;28;20718;-82
2021/04/27 04:38:27;;;;;;;1.80;1.47;;;;;;;2.00;60.31;100410.44;5117295;28;20669;-81
2021/04/27 04:40:53;;;;;;;2.33;1.70;;;;;;;2.03;60.82;100412.22;5117466;28;20207;-82
2021/04/27 04:43:19;;;;;;;1.70;1.60;;;;;;;1.90;61.67;100406.00;5114939;28;20204;-81
2021/04/27 04:45:46;;;;;;;4.27;2.07;;;;;;;1.85;62.52;100407.63;5114226;27;20227;-81
2021/04/27 04:48:12;;;;;;;3.43;1.80;;;;;;;1.82;62.31;100412.72;5113886;28;20236;-82
2021/04/27 04:50:38;;;;;;;2.73;1.80;;;;;;;2.01;60.95;100414.75;5114433;28;20203;-81
2021/04/27 04:53:06;;;;;;;2.13;1.87;;;;;;;2.15;60.49;100417.53;5112920;28;20207;-81
2021/04/27 04:55:32;;;;;;;2.10;1.90;;;;;;;2.24;60.17;100414.22;5112934;28;20670;-81
2021/04/27 04:57:58;;;;;;;2.53;2.00;;;;;;;2.30;60.11;100416.88;5112947;27;20224;-81
2021/04/27 05:00:23;;;;;;;1.80;1.70;;;;;;;2.31;60.18;100418.63;5113073;28;20657;-81
2021/04/27 05:02:49;;;;;;;3.30;1.90;;;;;;;2.32;61.07;100418.66;5113181;27;20262;-81
2021/04/27 05:05:17;;;;;;;2.43;2.20;;;;;;;2.25;61.83;100421.13;5113655;28;20283;-81
2021/04/27 05:07:44;;;;;;;2.13;1.80;;;;;;;2.25;61.83;100424.56;5113902;28;20296;-81
2021/04/27 05:10:12;;;;;;;2.93;2.60;;;;;;;2.37;60.93;100429.88;5113907;27;20218;-81
2021/04/27 05:12:39;;;;;;;2.23;1.80;;;;;;;2.43;61.28;100423.94;5113121;28;20678;-82
2021/04/27 05:15:07;;;;;;;3.93;2.27;;;;;;;2.53;60.59;100424.94;5114398;27;20216;-82
2021/04/27 05:17:33;;;;;;;3.37;2.10;;;;;;;2.67;59.84;100431.13;5113526;28;20234;-82
2021/04/27 05:20:00;;;;;;;3.50;2.10;;;;;;;2.66;60.38;100423.41;5113840;27;20619;-81
2021/04/27 05:22:27;;;;;;;2.50;2.30;;;;;;;2.74;58.36;100417.50;5114120;27;20206;-83
2021/04/27 05:24:54;;;;;;;2.83;2.47;;;;;;;2.82;59.56;100417.59;5113188;28;20318;-81
2021/04/27 05:27:21;;;;;;;2.20;1.90;;;;;;;2.90;58.65;100422.84;5113433;28;20223;-81
2021/04/27 05:29:47;;;;;;;2.37;2.10;;;;;;;2.95;58.50;100419.47;5113718;28;20207;-82
2021/04/27 05:32:13;;;;;;;5.53;2.17;;;;;;;3.01;59.08;100422.94;5114344;28;20271;-82
2021/04/27 05:34:39;;;;;;;3.77;2.10;;;;;;;3.09;57.65;100417.06;5113844;28;20215;-81
2021/04/27 05:37:05;;;;;;;5.37;1.80;;;;;;;3.14;56.99;100422.25;5114512;27;20215;-81
2021/04/27 05:39:31;;;;;;;3.83;2.23;;;;;;;3.21;57.13;100423.16;5113716;28;20203;-83
2021/04/27 05:41:57;;;;;;;3.10;2.03;;;;;;;3.27;56.84;100421.53;5113771;28;20204;-81
2021/04/27 05:44:24;;;;;;;5.97;2.43;;;;;;;3.29;56.02;100429.28;5112945;28;21177;-81
2021/04/27 05:46:50;;;;;;;4.20;2.03;;;;;;;3.37;55.79;100430.25;5112984;28;20280;-81
2021/04/27 05:49:16;;;;;;;4.07;2.70;;;;;;;3.44;55.48;100421.69;5113849;28;20214;-81
2021/04/27 05:51:42;;;;;;;3.87;2.27;;;;;;;3.51;56.12;100427.81;5112368;27;20739;-81
2021/04/27 05:54:08;;;;;;;3.47;1.77;;;;;;;3.56;56.38;100421.81;5111416;28;20205;-81
2021/04/27 05:56:35;;;;;;;2.70;2.50;;;;;;;3.63;55.85;100429.59;5112977;27;20251;-82
2021/04/27 05:59:02;;;;;;;2.57;2.07;;;;;;;3.65;55.71;100427.91;5112254;28;20245;-83
2021/04/27 06:01:29;;;;;;;2.27;1.87;;;;;;;3.74;56.42;100423.69;5113414;27;20211;-81
2021/04/27 06:03:55;;;;;;;4.83;2.13;;;;;;;3.83;55.80;100429.81;5112745;28;20224;-83
2021/04/27 06:06:21;;;;;;;2.80;2.20;;;;;;;3.87;55.64;100435.00;5113771;28;20305;-81
2021/04/27 06:08:48;;;;;;;3.13;2.30;;;;;;;3.96;55.25;100436.78;5113062;28;20289;-81
2021/04/27 06:11:14;;;;;;;4.57;2.50;;;;;;;4.02;54.97;100435.97;5113486;27;20593;-83
2021/04/27 06:13:40;;;;;;;2.87;2.40;;;;;;;4.06;54.79;100430.81;5113494;28;20222;-82
2021/04/27 06:16:07;;;;;;;5.23;2.70;;;;;;;4.16;55.14;100429.16;5114072;28;20203;-81
2021/04/27 06:18:34;;;;;;;6.27;3.00;;;;;;;4.24;54.23;100431.81;5113142;28;20627;-83
2021/04/27 06:21:00;;;;;;;2.57;2.03;;;;;;;4.30;53.70;100430.16;5114309;28;20208;-82
2021/04/27 06:23:26;;;;;;;3.97;2.60;;;;;;;4.38;53.15;100436.22;5113902;28;20855;-82
2021/04/27 06:25:53;;;;;;;2.67;2.03;;;;;;;4.48;53.30;100437.16;5119586;28;20226;-82
2021/04/27 06:28:19;;;;;;;4.83;2.30;;;;;;;4.60;52.90;100432.88;5117118;27;20203;-82
2021/04/27 06:30:45;;;;;;;2.67;2.30;;;;;;;4.70;52.96;100435.53;5112687;28;20197;-81
2021/04/27 06:33:11;;;;;;;5.60;2.80;;;;;;;4.80;53.43;100428.69;5104323;28;20197;-81
2021/04/27 06:35:39;;;;;;;5.43;2.40;;;;;;;4.91;52.64;100434.75;5111963;28;20199;-81
2021/04/27 06:38:05;;;;;;;5.00;2.40;;;;;;;5.02;52.25;100427.06;5109203;28;20287;-82
2021/04/27 06:40:32;;;;;;;2.43;2.10;;;;;;;5.13;52.98;100425.38;5113587;28;20205;-82
2021/04/27 06:42:58;;;;;;;5.40;2.50;;;;;;;5.24;52.21;100421.94;5115076;28;20232;-83
2021/04/27 06:45:24;;;;;;;3.27;1.97;;;;;;;5.35;51.98;100425.41;5111379;28;20223;-78
2021/04/27 06:47:50;;;;;;;3.33;2.00;;;;;;;5.44;51.82;100422.84;5101792;28;20224;-79
2021/04/27 06:50:18;;;;;;;3.00;2.43;;;;;;;5.53;51.03;100414.22;5107968;28;20207;-81
2021/04/27 06:52:46;;;;;;;3.70;2.55;;;;;;;5.70;50.97;100414.25;5106706;28;20457;-79
2021/04/27 06:55:13;;;;;;;2.13;1.93;;;;;;;5.83;49.79;100410.81;5112608;28;20200;-80
2021/04/27 06:57:39;;;;;;;3.67;2.10;;;;;;;5.94;48.68;100414.25;5110332;28;20225;-79
2021/04/27 07:00:07;;;;;;;2.60;2.40;;;;;;;6.04;48.85;100420.31;5111366;28;20206;-79
2021/04/27 07:02:33;;;;;;;2.33;2.13;;;;;;;6.09;48.49;100407.38;5115842;28;20203;-79
2021/04/27 07:04:59;;;;;;;2.43;1.60;;;;;;;6.15;48.64;100408.22;5110842;27;20224;-79
2021/04/27 07:07:26;;;;;;;2.40;2.20;;;;;;;6.26;49.61;100410.78;5115657;28;20229;-79
2021/04/27 07:09:52;;;;;;;4.17;1.97;;;;;;;6.31;48.97;100408.19;5117313;28;20202;-81
2021/04/27 07:12:18;;;;;;;3.33;1.67;;;;;;;6.34;47.99;100403.00;5117292;28;20202;-81
2021/04/27 07:14:44;;;;;;;3.03;2.00;;;;;;;6.39;48.03;100408.19;5121920;28;20568;-80
2021/04/27 07:17:10;;;;;;;2.43;2.23;;;;;;;6.31;48.95;100401.28;5115327;28;20219;-81
2021/04/27 07:19:36;;;;;;;2.97;2.00;;;;;;;6.32;47.46;100390.06;5121582;28;20295;-81
2021/04/27 07:22:02;;;;;;;2.53;2.00;;;;;;;6.39;47.24;100400.41;5111866;28;20301;-81
2021/04/27 07:24:28;;;;;;;3.73;2.07;;;;;;;6.48;47.00;100396.06;5115566;28;20218;-81
2021/04/27 07:26:55;;;;;;;2.83;1.90;;;;;;;6.56;46.63;100391.72;5106674;28;20217;-81
2021/04/27 07:29:21;;;;;;;3.67;1.80;;;;;;;6.60;46.17;100389.97;5121198;28;20203;-81
2021/04/27 07:31:47;;;;;;;2.93;2.10;;;;;;;6.63;46.12;100389.09;5117022;28;20211;-81
2021/04/27 07:34:14;;;;;;;4.30;1.80;;;;;;;6.73;45.30;100376.06;5121461;28;20190;-79
2021/04/27 07:36:40;;;;;;;2.63;2.00;;;;;;;6.81;45.79;100381.22;5115400;28;20689;-80
2021/04/27 07:39:09;;;;;;;2.80;1.77;;;;;;;6.90;46.31;100367.38;5120548;28;20215;-79
2021/04/27 07:41:35;;;;;;;3.23;2.13;;;;;;;6.98;45.76;100370.78;5118879;27;20200;-80
2021/04/27 07:44:02;;;;;;;3.33;2.17;;;;;;;7.05;44.46;100366.41;5123175;28;20669;-80
2021/04/27 07:46:28;;;;;;;3.30;2.20;;;;;;;7.16;44.92;100369.81;5123297;28;20230;-79
2021/04/27 07:48:54;;;;;;;4.13;2.20;;;;;;;7.24;44.78;100367.16;5123151;28;20208;-79
2021/04/27 07:51:20;;;;;;;2.83;2.07;;;;;;;7.25;44.34;100364.53;5123519;28;20773;-80
2021/04/27 07:53:46;;;;;;;2.07;1.90;;;;;;;7.34;44.40;100364.50;5123901;28;20209;-79
2021/04/27 07:56:12;;;;;;;4.10;2.00;;;;;;;7.43;43.05;100362.69;5124234;27;20219;-79
2021/04/27 07:58:38;;;;;;;1.63;1.53;;;;;;;7.47;42.25;100354.88;5126585;28;20233;-79
2021/04/27 08:01:05;;;;;;;3.73;1.80;;;;;;;7.56;41.64;100359.13;5122285;28;20194;-79
2021/04/27 08:03:31;;;;;;;8.80;2.00;;;;;;;7.63;42.08;100363.44;5118820;28;20196;-80
2021/04/27 08:05:57;;;;;;;3.10;1.77;;;;;;;7.66;41.28;100354.72;5122317;28;20223;-80
2021/04/27 08:08:23;;;;;;;1.83;1.23;;;;;;;7.67;41.10;100361.63;5123209;28;20231;-80
2021/04/27 08:10:49;;;;;;;2.30;1.90;;;;;;;7.72;40.72;100350.34;5121182;28;20196;-80
2021/04/27 08:13:15;;;;;;;1.90;1.70;;;;;;;7.81;39.61;100365.00;5121999;28;20244;-79
2021/04/27 08:15:41;;;;;;;3.37;1.97;;;;;;;7.90;39.79;100356.25;5123131;28;20199;-80
2021/04/27 08:18:09;;;;;;;3.00;1.80;;;;;;;7.91;39.31;100356.25;5122165;28;20223;-81
2021/04/27 08:20:36;;;;;;;3.93;1.80;;;;;;;7.98;39.09;100354.44;5125569;28;20225;-80
2021/04/27 08:23:03;;;;;;;2.30;1.97;;;;;;;8.02;38.99;100350.06;5118702;28;20203;-80
2021/04/27 08:25:30;;;;;;;3.33;1.60;;;;;;;8.13;39.38;100343.88;5120026;28;20257;-79
2021/04/27 08:27:56;;;;;;;1.93;1.50;;;;;;;8.13;36.32;100343.88;5116845;28;20223;-79
2021/04/27 08:30:24;;;;;;;1.50;1.40;;;;;;;8.17;37.18;100342.13;5119159;28;20211;-80
2021/04/27 08:32:52;;;;;;;3.17;1.33;;;;;;;8.21;36.03;100348.16;5116194;28;20208;-79
2021/04/27 08:35:19;;;;;;;1.77;1.23;;;;;;;8.24;36.37;100338.56;5120066;28;20193;-80
2021/04/27 08:37:45;;;;;;;2.77;1.60;;;;;;;8.34;35.51;100352.31;5119278;28;20310;-80
2021/04/27 08:40:13;;;;;;;3.50;1.83;;;;;;;8.36;36.86;100329.75;5116247;28;20225;-80
2021/04/27 08:42:40;;;;;;;1.37;1.20;;;;;;;8.44;33.57;100348.78;5114234;28;20214;-79
2021/04/27 08:45:08;;;;;;;2.70;1.53;;;;;;;8.53;33.71;100338.25;5120635;28;20220;-80
2021/04/27 08:47:34;;;;;;;1.60;1.50;;;;;;;8.61;34.27;100330.38;5118231;28;20230;-79
2021/04/27 08:50:01;;;;;;;1.17;1.07;;;;;;;8.60;33.46;100333.84;5120123;27;20212;-80
2021/04/27 08:52:28;;;;;;;2.43;1.37;;;;;;;8.66;33.94;100333.78;5112129;28;20861;-79
2021/04/27 08:54:53;;;;;;;2.90;1.40;;;;;;;8.75;34.87;100338.84;5112312;28;20563;-80
2021/04/27 08:57:20;;;;;;;2.37;1.50;;;;;;;8.81;33.46;100330.09;5109702;28;20219;-79
2021/04/27 08:59:46;;;;;;;2.73;1.70;;;;;;;8.90;32.67;100334.31;5111144;28;20196;-80
2021/04/27 09:02:12;;;;;;;2.60;1.30;;;;;;;8.95;34.50;100327.31;5111497;28;20202;-80
2021/04/27 09:04:41;;;;;;;1.40;1.30;;;;;;;9.03;34.24;100327.19;5110962;28;20227;-80
2021/04/27 09:07:09;;;;;;;3.07;1.50;;;;;;;9.10;34.17;100321.88;5115468;28;20700;-80
2021/04/27 09:09:40;;;;;;;3.00;1.80;;;;;;;9.14;34.70;100310.53;5112802;28;20202;-80
2021/04/27 09:12:08;;;;;;;2.00;1.80;;;;;;;9.20;35.09;100317.41;5108542;28;20211;-79
2021/04/27 09:14:38;;;;;;;5.70;2.10;;;;;;;9.27;35.82;100308.59;5112163;28;20213;-79
2021/04/27 09:17:06;;;;;;;2.80;1.70;;;;;;;9.35;34.53;100308.47;5107893;28;20231;-79
2021/04/27 09:19:39;;;;;;;4.00;2.00;;;;;;;9.45;34.04;100304.84;5112653;28;20691;-80
2021/04/27 09:22:08;;;;;;;4.10;1.37;;;;;;;9.46;32.24;100308.31;5107887;28;20209;-79
2021/04/27 09:24:37;;;;;;;2.10;1.30;;;;;;;9.51;32.51;100302.16;5112167;28;20586;-80
2021/04/27 09:27:04;;;;;;;1.67;1.30;;;;;;;9.53;32.97;100300.38;5107799;28;20216;-80
2021/04/27 09:29:32;;;;;;;3.67;1.97;;;;;;;9.58;33.78;100302.03;5117450;28;20246;-80
2021/04/27 09:31:58;;;;;;;3.87;1.40;;;;;;;9.64;33.37;100291.50;5114383;27;20211;-79
2021/04/27 09:34:26;;;;;;;1.40;1.30;;;;;;;9.66;31.22;100293.19;5121690;28;20626;-79
2021/04/27 09:36:54;;;;;;;2.57;1.70;;;;;;;9.65;31.25;100281.06;5114165;28;20228;-81
2021/04/27 09:39:29;;;;;;;2.47;1.43;;;;;;;9.66;32.33;100285.38;5120210;28;20252;-80
2021/04/27 09:42:01;;;;;;;1.50;1.40;;;;;;;9.77;31.41;100285.16;5119280;27;20198;-80
2021/04/27 09:44:29;;;;;;;3.30;1.40;;;;;;;9.79;31.05;100285.16;5122733;28;20216;-80
2021/04/27 09:47:19;;;;;;;1.77;1.43;;;;;;;9.82;31.37;100278.13;5115337;28;20231;-80
2021/04/27 09:49:56;;;;;;;3.00;1.63;;;;;;;9.83;30.38;100279.00;5120187;28;20206;-80
2021/04/27 09:52:23;;;;;;;3.50;1.47;;;;;;;9.92;31.66;100274.47;5122895;27;20198;-79
2021/04/27 09:55:13;;;;;;;2.80;1.77;;;;;;;9.94;31.29;100277.91;5120227;28;20204;-81
2021/04/27 09:57:46;;;;;;;1.20;1.10;;;;;;;9.95;30.68;100268.34;5116568;28;20229;-79
2021/04/27 10:00:35;;;;;;;2.50;1.47;;;;;;;9.97;30.17;100269.19;5119247;28;20195;-80
2021/04/27 10:03:03;;;;;;;1.93;1.53;;;;;;;9.97;29.47;100271.78;5119151;28;20260;-80
2021/04/27 10:05:30;;;;;;;2.83;1.43;;;;;;;9.89;30.19;100243.25;5119099;28;20215;-79
2021/04/27 10:07:58;;;;;;;3.53;1.40;;;;;;;9.97;31.50;100258.75;5115754;28;20654;-80
2021/04/27 10:10:26;;;;;;;1.90;1.50;;;;;;;10.06;29.58;100255.94;5119832;28;20268;-81
2021/04/27 10:12:53;;;;;;;1.80;1.40;;;;;;;10.16;31.39;100247.94;5117983;28;20196;-81
2021/04/27 10:15:20;;;;;;;1.30;1.17;;;;;;;10.22;30.76;100256.50;5119996;28;20203;-80
2021/04/27 10:17:46;;;;;;;1.43;1.33;;;;;;;10.26;31.89;100257.31;5115018;28;20224;-79
2021/04/27 10:20:14;;;;;;;2.43;1.50;;;;;;;10.36;30.98;100245.81;5119107;28;20199;-80
2021/04/27 10:22:42;;;;;;;5.70;1.70;;;;;;;10.45;32.25;100244.78;5117709;28;20214;-81
2021/04/27 10:25:13;;;;;;;2.00;1.57;;;;;;;10.56;30.93;100237.53;5119514;28;20229;-80
2021/04/27 10:27:39;;;;;;;2.07;1.50;;;;;;;10.60;31.47;100241.81;5115167;28;20230;-81
2021/04/27 10:30:40;;;;;;;1.77;1.50;;;;;;;10.70;30.47;100230.28;5121850;28;20266;-81
2021/04/27 10:33:25;;;;;;;10.63;2.00;;;;;;;10.79;32.38;100225.75;5106512;28;20203;-80
2021/04/27 10:36:09;;;;;;;1.73;1.40;;;;;;;10.93;30.83;100227.13;5115448;28;20570;-81
2021/04/27 10:38:44;;;;;;;2.20;1.33;;;;;;;11.04;29.98;100226.88;5115376;27;20215;-80
2021/04/27 10:41:12;;;;;;;1.53;1.43;;;;;;;11.08;31.06;100223.28;5116696;28;20175;-80
2021/04/27 10:43:41;;;;;;;2.53;2.00;;;;;;;11.26;31.47;100215.91;5114725;28;20261;-81
2021/04/27 10:46:11;;;;;;;1.80;1.70;;;;;;;11.36;31.27;100213.88;5116010;28;20631;-81
2021/04/27 10:48:40;;;;;;;3.43;1.83;;;;;;;11.45;31.52;100204.03;5114353;28;20289;-80
2021/04/27 10:51:38;;;;;;;2.73;2.10;;;;;;;11.42;30.19;100208.53;5117674;28;20229;-80
2021/04/27 10:56:37;;;;;;;3.97;1.90;;;;;;;11.50;29.63;100193.50;5042896;28;20280;-72
2021/04/27 10:59:05;;;;;;;2.70;2.00;;;;;;;11.46;29.13;100184.03;5032541;28;20198;-72
2021/04/27 11:01:32;;;;;;;2.37;1.57;;;;;;;11.27;29.81;100205.38;5034873;28;20202;-72
2021/04/27 11:03:59;;;;;;;2.13;1.57;;;;;;;11.21;29.31;100189.88;5036279;28;20556;-72
2021/04/27 11:06:26;;;;;;;2.23;1.80;;;;;;;11.29;29.29;100184.44;5038820;28;20255;-72
2021/04/27 11:08:54;;;;;;;2.77;1.77;;;;;;;11.37;29.91;100182.50;5034632;28;20208;-73
2021/04/27 11:11:23;;;;;;;2.53;1.70;;;;;;;11.44;30.19;100184.06;5037150;28;20202;-71
2021/04/27 11:13:50;;;;;;;4.90;2.10;;;;;;;11.63;30.25;100178.31;5039344;28;20254;-72
2021/04/27 11:16:27;;;;;;;3.13;1.73;;;;;;;11.83;28.56;100181.25;5036646;28;20711;-72
2021/04/27 11:19:13;;;;;;;1.87;1.70;;;;;;;11.93;28.45;100174.00;5033892;28;20212;-72
2021/04/27 11:21:40;;;;;;;2.50;1.63;;;;;;;12.08;28.75;100172.72;5034794;28;20202;-72
2021/04/27 11:24:08;;;;;;;2.93;1.93;;;;;;;12.27;27.82;100171.28;5035644;28;20732;-72
2021/04/27 11:26:55;;;;;;;2.20;1.60;;;;;;;12.51;27.94;100167.03;5033150;28;20230;-72
2021/04/27 11:29:23;;;;;;;1.60;1.40;;;;;;;12.96;26.95;100156.88;5032317;28;20218;-71
2021/04/27 11:32:05;;;;;;;1.63;1.50;;;;;;;14.20;25.33;100162.09;5036750;28;20202;-73
2021/04/27 11:34:46;;;;;;;1.97;1.80;;;;;;;15.92;22.96;100148.84;5032924;28;20231;-73
2021/04/27 11:37:16;;;;;;;5.40;1.60;;;;;;;17.45;22.77;100137.88;5036403;28;20223;-73